sensor_id;sensor_type;location;lat;lon;timestamp;pressure;altitude;pressure_sealevel;temperature;humidity
22605;BME280;11469;49.024;8.246;2023-10-19T00:00:37;98753.41;;;10.28;100.00
22605;BME280;11469;49.024;8.246;2023-10-19T00:03:06;98752.22;;;10.29;100.00
22605;BME280;11469;49.024;8.246;2023-10-19T00:05:33;98754.22;;;10.28;100.00
22605;BME280;11469;49.024;8.246;2023-10-19T00:07:59;98748.59;;;10.28;100.00
22605;BME280;11469;49.024;8.246;2023-10-19T00:10:27;98743.00;;;10.32;100.00
22605;BME280;11469;49.024;8.246;2023-10-19T00:12:58;98736.22;;;10.33;100.00
22605;BME280;11469;49.024;8.246;2023-10-19T00:15:34;98739.41;;;10.35;100.00
22605;BME280;11469;49.024;8.246;2023-10-19T00:18:03;98723.41;;;10.36;100.00
22605;BME280;11469;49.024;8.246;2023-10-19T00:20:48;98717.81;;;10.36;100.00
22605;BME280;11469;49.024;8.246;2023-10-19T00:23:39;98715.00;;;10.36;100.00
22605;BME280;11469;49.024;8.246;2023-10-19T00:26:05;98727.81;;;10.37;100.00
22605;BME280;11469;49.024;8.246;2023-10-19T00:28:35;98717.00;;;10.35;100.00
22605;BME280;11469;49.024;8.246;2023-10-19T00:31:01;98713.81;;;10.37;100.00
22605;BME280;11469;49.024;8.246;2023-10-19T00:33:33;98715.00;;;10.39;100.00
22605;BME280;11469;49.024;8.246;2023-10-19T00:36:00;98705.38;;;10.40;100.00
22605;BME280;11469;49.024;8.246;2023-10-19T00:38:33;98701.38;;;10.45;100.00
22605;BME280;11469;49.024;8.246;2023-10-19T00:40:58;98710.56;;;10.45;100.00
22605;BME280;11469;49.024;8.246;2023-10-19T00:43:33;98698.19;;;10.43;100.00
22605;BME280;11469;49.024;8.246;2023-10-19T00:46:01;98701.38;;;10.41;100.00
22605;BME280;11469;49.024;8.246;2023-10-19T00:48:28;98704.97;;;10.42;100.00
22605;BME280;11469;49.024;8.246;2023-10-19T00:50:54;98706.56;;;10.43;100.00
22605;BME280;11469;49.024;8.246;2023-10-19T00:53:34;98709.78;;;10.45;100.00
22605;BME280;11469;49.024;8.246;2023-10-19T00:56:01;98694.19;;;10.44;100.00
22605;BME280;11469;49.024;8.246;2023-10-19T00:58:30;98708.56;;;10.46;100.00
22605;BME280;11469;49.024;8.246;2023-10-19T01:00:56;98698.97;;;10.47;100.00
22605;BME280;11469;49.024;8.246;2023-10-19T01:03:25;98692.16;;;10.48;100.00
22605;BME280;11469;49.024;8.246;2023-10-19T01:05:57;98689.78;;;10.46;100.00
22605;BME280;11469;49.024;8.246;2023-10-19T01:08:23;98685.78;;;10.51;100.00
22605;BME280;11469;49.024;8.246;2023-10-19T01:10:52;98674.97;;;10.56;100.00
22605;BME280;11469;49.024;8.246;2023-10-19T01:13:18;98676.56;;;10.57;100.00
22605;BME280;11469;49.024;8.246;2023-10-19T01:15:52;98683.75;;;10.55;100.00
22605;BME280;11469;49.024;8.246;2023-10-19T01:18:21;98672.56;;;10.55;100.00
22605;BME280;11469;49.024;8.246;2023-10-19T01:20:47;98651.34;;;10.57;100.00
22605;BME280;11469;49.024;8.246;2023-10-19T01:23:20;98673.75;;;10.57;100.00
22605;BME280;11469;49.024;8.246;2023-10-19T01:25:51;98663.34;;;10.58;100.00
22605;BME280;11469;49.024;8.246;2023-10-19T01:28:20;98661.34;;;10.58;100.00
22605;BME280;11469;49.024;8.246;2023-10-19T01:31:22;98665.75;;;10.59;100.00
22605;BME280;11469;49.024;8.246;2023-10-19T01:33:54;98650.13;;;10.62;100.00
22605;BME280;11469;49.024;8.246;2023-10-19T01:36:26;98652.94;;;10.62;100.00
22605;BME280;11469;49.024;8.246;2023-10-19T01:38:57;98644.53;;;10.62;100.00
22605;BME280;11469;49.024;8.246;2023-10-19T01:41:40;98640.53;;;10.63;100.00
22605;BME280;11469;49.024;8.246;2023-10-19T01:44:06;98644.94;;;10.64;100.00
22605;BME280;11469;49.024;8.246;2023-10-19T01:46:34;98648.94;;;10.63;100.00
22605;BME280;11469;49.024;8.246;2023-10-19T01:49:00;98648.53;;;10.64;100.00
22605;BME280;11469;49.024;8.246;2023-10-19T01:51:29;98652.13;;;10.65;100.00
22605;BME280;11469;49.024;8.246;2023-10-19T01:53:56;98648.13;;;10.66;100.00
22605;BME280;11469;49.024;8.246;2023-10-19T01:56:22;98654.94;;;10.69;100.00
22605;BME280;11469;49.024;8.246;2023-10-19T01:58:48;98646.53;;;10.69;100.00
22605;BME280;11469;49.024;8.246;2023-10-19T02:01:15;98648.53;;;10.68;100.00
22605;BME280;11469;49.024;8.246;2023-10-19T02:04:01;98637.31;;;10.68;100.00
22605;BME280;11469;49.024;8.246;2023-10-19T02:06:30;98626.91;;;10.69;100.00
22605;BME280;11469;49.024;8.246;2023-10-19T02:09:12;98623.69;;;10.70;100.00
22605;BME280;11469;49.024;8.246;2023-10-19T02:11:57;98619.69;;;10.71;100.00
22605;BME280;11469;49.024;8.246;2023-10-19T02:14:24;98618.50;;;10.72;100.00
22605;BME280;11469;49.024;8.246;2023-10-19T02:16:57;98622.91;;;10.73;100.00
22605;BME280;11469;49.024;8.246;2023-10-19T02:19:25;98614.50;;;10.73;100.00
22605;BME280;11469;49.024;8.246;2023-10-19T02:21:59;98612.47;;;10.77;100.00
22605;BME280;11469;49.024;8.246;2023-10-19T02:24:26;98611.69;;;10.77;100.00
22605;BME280;11469;49.024;8.246;2023-10-19T02:26:53;98609.69;;;10.77;100.00
22605;BME280;11469;49.024;8.246;2023-10-19T02:29:19;98614.47;;;10.77;100.00
22605;BME280;11469;49.024;8.246;2023-10-19T02:31:45;98608.47;;;10.78;100.00
22605;BME280;11469;49.024;8.246;2023-10-19T02:34:11;98612.47;;;10.81;100.00
22605;BME280;11469;49.024;8.246;2023-10-19T02:36:40;98610.84;;;10.83;100.00
22605;BME280;11469;49.024;8.246;2023-10-19T02:39:08;98612.44;;;10.84;100.00
22605;BME280;11469;49.024;8.246;2023-10-19T02:41:38;98606.84;;;10.84;100.00
22605;BME280;11469;49.024;8.246;2023-10-19T02:44:08;98612.44;;;10.84;100.00
22605;BME280;11469;49.024;8.246;2023-10-19T02:46:53;98597.25;;;10.85;100.00
22605;BME280;11469;49.024;8.246;2023-10-19T02:49:24;98592.44;;;10.86;100.00
22605;BME280;11469;49.024;8.246;2023-10-19T02:51:52;98587.97;;;10.88;100.00
22605;BME280;11469;49.024;8.246;2023-10-19T02:54:20;98585.56;;;10.90;100.00
22605;BME280;11469;49.024;8.246;2023-10-19T02:56:49;98584.38;;;10.91;100.00
22605;BME280;11469;49.024;8.246;2023-10-19T02:59:15;98584.38;;;10.91;100.00
22605;BME280;11469;49.024;8.246;2023-10-19T03:01:42;98577.56;;;10.92;100.00
22605;BME280;11469;49.024;8.246;2023-10-19T03:04:11;98582.75;;;10.94;100.00
22605;BME280;11469;49.024;8.246;2023-10-19T03:06:40;98579.53;;;10.95;100.00
22605;BME280;11469;49.024;8.246;2023-10-19T03:09:07;98566.72;;;11.02;100.00
22605;BME280;11469;49.024;8.246;2023-10-19T03:11:41;98559.91;;;11.03;100.00
22605;BME280;11469;49.024;8.246;2023-10-19T03:14:07;98557.09;;;11.03;100.00
22605;BME280;11469;49.024;8.246;2023-10-19T03:16:34;98554.69;;;11.05;100.00
22605;BME280;11469;49.024;8.246;2023-10-19T03:19:00;98565.47;;;11.10;100.00
22605;BME280;11469;49.024;8.246;2023-10-19T03:21:25;98560.25;;;11.08;100.00
22605;BME280;11469;49.024;8.246;2023-10-19T03:23:57;98562.28;;;11.08;100.00
22605;BME280;11469;49.024;8.246;2023-10-19T03:26:27;98567.06;;;11.07;100.00
22605;BME280;11469;49.024;8.246;2023-10-19T03:29:02;98566.66;;;11.09;100.00
22605;BME280;11469;49.024;8.246;2023-10-19T03:31:34;98556.25;;;11.09;100.00
22605;BME280;11469;49.024;8.246;2023-10-19T03:34:09;98553.03;;;11.11;100.00
22605;BME280;11469;49.024;8.246;2023-10-19T03:36:35;98557.41;;;11.15;100.00
22605;BME280;11469;49.024;8.246;2023-10-19T03:39:01;98552.22;;;11.14;100.00
22605;BME280;11469;49.024;8.246;2023-10-19T03:41:36;98543.81;;;11.14;100.00
22605;BME280;11469;49.024;8.246;2023-10-19T03:44:03;98548.19;;;11.18;100.00
22605;BME280;11469;49.024;8.246;2023-10-19T03:46:28;98536.19;;;11.18;100.00
22605;BME280;11469;49.024;8.246;2023-10-19T03:48:56;98541.38;;;11.19;100.00
22605;BME280;11469;49.024;8.246;2023-10-19T03:51:29;98540.56;;;11.22;100.00
22605;BME280;11469;49.024;8.246;2023-10-19T03:54:05;98540.16;;;11.24;100.00
22605;BME280;11469;49.024;8.246;2023-10-19T03:56:48;98525.72;;;11.25;100.00
22605;BME280;11469;49.024;8.246;2023-10-19T03:59:13;98519.31;;;11.25;100.00
22605;BME280;11469;49.024;8.246;2023-10-19T04:01:39;98513.28;;;11.26;100.00
22605;BME280;11469;49.024;8.246;2023-10-19T04:04:04;98514.09;;;11.27;100.00
22605;BME280;11469;49.024;8.246;2023-10-19T04:06:30;98524.91;;;11.25;100.00
22605;BME280;11469;49.024;8.246;2023-10-19T04:08:55;98520.53;;;11.24;100.00
22605;BME280;11469;49.024;8.246;2023-10-19T04:11:21;98509.72;;;11.22;100.00
22605;BME280;11469;49.024;8.246;2023-10-19T04:13:58;98517.34;;;11.18;100.00
22605;BME280;11469;49.024;8.246;2023-10-19T04:16:26;98513.38;;;11.12;100.00
22605;BME280;11469;49.024;8.246;2023-10-19T04:18:53;98514.63;;;11.08;100.00
22605;BME280;11469;49.024;8.246;2023-10-19T04:21:19;98515.44;;;11.05;100.00
22605;BME280;11469;49.024;8.246;2023-10-19T04:23:45;98511.44;;;11.02;100.00
22605;BME280;11469;49.024;8.246;2023-10-19T04:26:12;98503.84;;;10.99;100.00
22605;BME280;11469;49.024;8.246;2023-10-19T04:28:40;98499.47;;;10.94;100.00
22605;BME280;11469;49.024;8.246;2023-10-19T04:31:11;98496.72;;;10.87;100.00
22605;BME280;11469;49.024;8.246;2023-10-19T04:33:39;98501.19;;;10.81;100.00
22605;BME280;11469;49.024;8.246;2023-10-19T04:36:08;98502.78;;;10.79;100.00
22605;BME280;11469;49.024;8.246;2023-10-19T04:38:36;98494.03;;;10.73;100.00
22605;BME280;11469;49.024;8.246;2023-10-19T04:41:09;98488.44;;;10.70;100.00
22605;BME280;11469;49.024;8.246;2023-10-19T04:43:36;98491.28;;;10.62;100.00
22605;BME280;11469;49.024;8.246;2023-10-19T04:46:07;98496.84;;;10.66;100.00
22605;BME280;11469;49.024;8.246;2023-10-19T04:48:35;98501.69;;;10.58;100.00
22605;BME280;11469;49.024;8.246;2023-10-19T04:51:01;98493.69;;;10.57;100.00
22605;BME280;11469;49.024;8.246;2023-10-19T04:53:28;98487.34;;;10.46;100.00
22605;BME280;11469;49.024;8.246;2023-10-19T04:55:54;98479.34;;;10.44;100.00
22605;BME280;11469;49.024;8.246;2023-10-19T04:58:19;98473.75;;;10.44;100.00
22605;BME280;11469;49.024;8.246;2023-10-19T05:00:44;98487.34;;;10.42;100.00
22605;BME280;11469;49.024;8.246;2023-10-19T05:03:10;98483.00;;;10.38;100.00
22605;BME280;11469;49.024;8.246;2023-10-19T05:05:35;98480.59;;;10.36;100.00
22605;BME280;11469;49.024;8.246;2023-10-19T05:08:01;98471.41;;;10.36;100.00
22605;BME280;11469;49.024;8.246;2023-10-19T05:10:26;98482.59;;;10.36;100.00
22605;BME280;11469;49.024;8.246;2023-10-19T05:12:52;98475.00;;;10.36;100.00
22605;BME280;11469;49.024;8.246;2023-10-19T05:15:20;98464.16;;;10.42;100.00
22605;BME280;11469;49.024;8.246;2023-10-19T05:17:45;98471.81;;;10.34;100.00
22605;BME280;11469;49.024;8.246;2023-10-19T05:20:11;98478.59;;;10.37;100.00
22605;BME280;11469;49.024;8.246;2023-10-19T05:22:36;98476.22;;;10.32;100.00
22605;BME280;11469;49.024;8.246;2023-10-19T05:25:02;98478.63;;;10.29;100.00
22605;BME280;11469;49.024;8.246;2023-10-19T05:27:28;98472.63;;;10.27;100.00
22605;BME280;11469;49.024;8.246;2023-10-19T05:29:54;98473.84;;;10.26;100.00
22605;BME280;11469;49.024;8.246;2023-10-19T05:32:20;98461.03;;;10.18;100.00
22605;BME280;11469;49.024;8.246;2023-10-19T05:34:46;98472.22;;;10.18;100.00
22605;BME280;11469;49.024;8.246;2023-10-19T05:37:12;98474.66;;;10.16;100.00
22605;BME280;11469;49.024;8.246;2023-10-19T05:39:37;98462.66;;;10.16;100.00
22605;BME280;11469;49.024;8.246;2023-10-19T05:42:03;98467.44;;;10.15;100.00
22605;BME280;11469;49.024;8.246;2023-10-19T05:44:29;98464.66;;;10.15;100.00
22605;BME280;11469;49.024;8.246;2023-10-19T05:46:56;98466.25;;;10.13;100.00
22605;BME280;11469;49.024;8.246;2023-10-19T05:49:22;98463.47;;;10.13;100.00
22605;BME280;11469;49.024;8.246;2023-10-19T05:51:49;98460.25;;;10.14;100.00
22605;BME280;11469;49.024;8.246;2023-10-19T05:54:15;98462.25;;;10.17;100.00
22605;BME280;11469;49.024;8.246;2023-10-19T05:56:40;98467.88;;;10.21;100.00
22605;BME280;11469;49.024;8.246;2023-10-19T05:59:06;98471.47;;;10.21;100.00
22605;BME280;11469;49.024;8.246;2023-10-19T06:01:32;98467.06;;;10.24;100.00
22605;BME280;11469;49.024;8.246;2023-10-19T06:03:57;98469.84;;;10.27;100.00
22605;BME280;11469;49.024;8.246;2023-10-19T06:06:23;98468.63;;;10.28;100.00
22605;BME280;11469;49.024;8.246;2023-10-19T06:08:48;98479.84;;;10.28;100.00
22605;BME280;11469;49.024;8.246;2023-10-19T06:11:19;98471.81;;;10.30;100.00
22605;BME280;11469;49.024;8.246;2023-10-19T06:13:44;98480.19;;;10.38;100.00
22605;BME280;11469;49.024;8.246;2023-10-19T06:16:09;98476.16;;;10.42;100.00
22605;BME280;11469;49.024;8.246;2023-10-19T06:18:35;98475.34;;;10.45;100.00
22605;BME280;11469;49.024;8.246;2023-10-19T06:21:00;98470.13;;;10.47;100.00
22605;BME280;11469;49.024;8.246;2023-10-19T06:23:26;98469.72;;;10.52;100.00
22605;BME280;11469;49.024;8.246;2023-10-19T06:25:51;98481.66;;;10.60;100.00
22605;BME280;11469;49.024;8.246;2023-10-19T06:28:17;98473.28;;;10.60;100.00
22605;BME280;11469;49.024;8.246;2023-10-19T06:30:42;98473.66;;;10.66;100.00
22605;BME280;11469;49.024;8.246;2023-10-19T06:33:08;98462.41;;;10.69;100.00
22605;BME280;11469;49.024;8.246;2023-10-19T06:35:33;98458.81;;;10.72;100.00
22605;BME280;11469;49.024;8.246;2023-10-19T06:38:00;98473.19;;;10.74;100.00
22605;BME280;11469;49.024;8.246;2023-10-19T06:40:26;98471.19;;;10.78;100.00
22605;BME280;11469;49.024;8.246;2023-10-19T06:42:55;98473.16;;;10.85;100.00
22605;BME280;11469;49.024;8.246;2023-10-19T06:45:24;98472.69;;;10.90;100.00
22605;BME280;11469;49.024;8.246;2023-10-19T06:47:55;98480.28;;;10.89;100.00
22605;BME280;11469;49.024;8.246;2023-10-19T06:50:22;98475.06;;;10.91;100.00
22605;BME280;11469;49.024;8.246;2023-10-19T06:52:47;98468.66;;;10.94;100.00
22605;BME280;11469;49.024;8.246;2023-10-19T06:55:15;98474.63;;;11.00;100.00
22605;BME280;11469;49.024;8.246;2023-10-19T06:57:51;98469.41;;;11.02;100.00
22605;BME280;11469;49.024;8.246;2023-10-19T07:00:19;98467.00;;;11.04;100.00
22605;BME280;11469;49.024;8.246;2023-10-19T07:02:52;98474.19;;;11.05;100.00
22605;BME280;11469;49.024;8.246;2023-10-19T07:05:19;98459.34;;;11.08;100.00
22605;BME280;11469;49.024;8.246;2023-10-19T07:07:50;98459.75;;;11.10;100.00
22605;BME280;11469;49.024;8.246;2023-10-19T07:10:20;98457.31;;;11.12;100.00
22605;BME280;11469;49.024;8.246;2023-10-19T07:12:47;98453.69;;;11.15;100.00
22605;BME280;11469;49.024;8.246;2023-10-19T07:15:14;98455.25;;;11.20;100.00
22605;BME280;11469;49.024;8.246;2023-10-19T07:17:41;98453.22;;;11.24;100.00
22605;BME280;11469;49.024;8.246;2023-10-19T07:20:07;98449.59;;;11.27;100.00
22605;BME280;11469;49.024;8.246;2023-10-19T07:22:37;98452.38;;;11.30;100.00
22605;BME280;11469;49.024;8.246;2023-10-19T07:25:05;98450.78;;;11.29;100.00
22605;BME280;11469;49.024;8.246;2023-10-19T07:27:31;98461.16;;;11.33;100.00
22605;BME280;11469;49.024;8.246;2023-10-19T07:29:59;98463.50;;;11.38;100.00
22605;BME280;11469;49.024;8.246;2023-10-19T07:32:24;98475.91;;;11.40;100.00
22605;BME280;11469;49.024;8.246;2023-10-19T07:34:50;98473.06;;;11.44;100.00
22605;BME280;11469;49.024;8.246;2023-10-19T07:37:15;98471.84;;;11.48;100.00
22605;BME280;11469;49.024;8.246;2023-10-19T07:39:45;98474.19;;;11.53;100.00
22605;BME280;11469;49.024;8.246;2023-10-19T07:42:11;98471.75;;;11.59;100.00
22605;BME280;11469;49.024;8.246;2023-10-19T07:44:37;98477.72;;;11.64;100.00
22605;BME280;11469;49.024;8.246;2023-10-19T07:47:02;98462.44;;;11.69;100.00
22605;BME280;11469;49.024;8.246;2023-10-19T07:49:28;98470.78;;;11.76;100.00
22605;BME280;11469;49.024;8.246;2023-10-19T07:51:53;98456.69;;;11.83;100.00
22605;BME280;11469;49.024;8.246;2023-10-19T07:54:19;98460.59;;;11.93;100.00
22605;BME280;11469;49.024;8.246;2023-10-19T07:56:45;98458.50;;;12.01;100.00
22605;BME280;11469;49.024;8.246;2023-10-19T07:59:12;98456.44;;;12.08;100.00
22605;BME280;11469;49.024;8.246;2023-10-19T08:01:38;98449.50;;;12.16;100.00
22605;BME280;11469;49.024;8.246;2023-10-19T08:04:03;98452.25;;;12.23;100.00
22605;BME280;11469;49.024;8.246;2023-10-19T08:06:29;98454.09;;;12.34;100.00
22605;BME280;11469;49.024;8.246;2023-10-19T08:08:56;98442.34;;;12.42;100.00
22605;BME280;11469;49.024;8.246;2023-10-19T08:11:21;98445.44;;;12.51;100.00
22605;BME280;11469;49.024;8.246;2023-10-19T08:13:47;98452.56;;;12.59;100.00
22605;BME280;11469;49.024;8.246;2023-10-19T08:16:12;98455.25;;;12.70;100.00
22605;BME280;11469;49.024;8.246;2023-10-19T08:18:38;98452.00;;;12.72;100.00
22605;BME280;11469;49.024;8.246;2023-10-19T08:21:04;98460.25;;;12.82;100.00
22605;BME280;11469;49.024;8.246;2023-10-19T08:23:30;98447.69;;;12.90;100.00
22605;BME280;11469;49.024;8.246;2023-10-19T08:25:57;98450.47;;;12.94;100.00
22605;BME280;11469;49.024;8.246;2023-10-19T08:28:23;98458.84;;;12.98;100.00
22605;BME280;11469;49.024;8.246;2023-10-19T08:30:49;98445.91;;;13.04;100.00
22605;BME280;11469;49.024;8.246;2023-10-19T08:33:26;98445.53;;;13.02;100.00
22605;BME280;11469;49.024;8.246;2023-10-19T08:35:55;98435.81;;;13.06;100.00
22605;BME280;11469;49.024;8.246;2023-10-19T08:38:22;98433.31;;;13.12;100.00
22605;BME280;11469;49.024;8.246;2023-10-19T08:40:50;98436.91;;;13.16;100.00
22605;BME280;11469;49.024;8.246;2023-10-19T08:43:17;98443.97;;;13.24;100.00
22605;BME280;11469;49.024;8.246;2023-10-19T08:45:44;98441.91;;;13.28;100.00
22605;BME280;11469;49.024;8.246;2023-10-19T08:48:10;98446.78;;;13.24;100.00
22605;BME280;11469;49.024;8.246;2023-10-19T08:50:37;98432.25;;;13.29;100.00
22605;BME280;11469;49.024;8.246;2023-10-19T08:53:04;98424.53;;;13.33;100.00
22605;BME280;11469;49.024;8.246;2023-10-19T08:55:31;98418.44;;;13.38;100.00
22605;BME280;11469;49.024;8.246;2023-10-19T08:57:57;98419.91;;;13.46;100.00
22605;BME280;11469;49.024;8.246;2023-10-19T09:00:26;98422.53;;;13.57;100.00
22605;BME280;11469;49.024;8.246;2023-10-19T09:02:52;98409.19;;;13.61;100.00
22605;BME280;11469;49.024;8.246;2023-10-19T09:05:19;98413.91;;;13.68;100.00
22605;BME280;11469;49.024;8.246;2023-10-19T09:07:50;98406.09;;;13.75;100.00
22605;BME280;11469;49.024;8.246;2023-10-19T09:10:26;98415.13;;;13.86;100.00
22605;BME280;11469;49.024;8.246;2023-10-19T09:12:59;98411.75;;;13.95;100.00
22605;BME280;11469;49.024;8.246;2023-10-19T09:15:27;98405.56;;;14.04;100.00
22605;BME280;11469;49.024;8.246;2023-10-19T09:17:53;98407.34;;;14.14;100.00
22605;BME280;11469;49.024;8.246;2023-10-19T09:20:20;98397.88;;;14.24;100.00
22605;BME280;11469;49.024;8.246;2023-10-19T09:22:56;98404.38;;;14.41;100.00
22605;BME280;11469;49.024;8.246;2023-10-19T09:25:27;98398.69;;;14.44;100.00
22605;BME280;11469;49.024;8.246;2023-10-19T09:27:53;98395.72;;;14.51;100.00
22605;BME280;11469;49.024;8.246;2023-10-19T09:30:19;98403.56;;;14.60;100.00
22605;BME280;11469;49.024;8.246;2023-10-19T09:32:48;98401.38;;;14.68;100.00
22605;BME280;11469;49.024;8.246;2023-10-19T09:35:15;98407.28;;;14.73;100.00
22605;BME280;11469;49.024;8.246;2023-10-19T09:37:44;98403.88;;;14.82;100.00
22605;BME280;11469;49.024;8.246;2023-10-19T09:40:10;98401.69;;;14.89;100.00
22605;BME280;11469;49.024;8.246;2023-10-19T09:42:40;98407.75;;;14.88;100.00
22605;BME280;11469;49.024;8.246;2023-10-19T09:45:11;98401.59;;;14.93;100.00
22605;BME280;11469;49.024;8.246;2023-10-19T09:47:38;98396.66;;;14.97;100.00
22605;BME280;11469;49.024;8.246;2023-10-19T09:50:06;98399.31;;;15.04;100.00
22605;BME280;11469;49.024;8.246;2023-10-19T09:52:35;98398.78;;;15.09;100.00
22605;BME280;11469;49.024;8.246;2023-10-19T09:55:22;98399.94;;;15.12;100.00
22605;BME280;11469;49.024;8.246;2023-10-19T09:58:10;98397.56;;;15.10;100.00
22605;BME280;11469;49.024;8.246;2023-10-19T10:00:37;98400.38;;;15.10;100.00
22605;BME280;11469;49.024;8.246;2023-10-19T10:03:03;98402.75;;;15.12;100.00
22605;BME280;11469;49.024;8.246;2023-10-19T10:10:46;98393.69;;;15.04;100.00
22605;BME280;11469;49.024;8.246;2023-10-19T10:15:52;98390.59;;;14.99;100.00
22605;BME280;11469;49.024;8.246;2023-10-19T10:18:19;98388.19;;;14.97;100.00
22605;BME280;11469;49.024;8.246;2023-10-19T10:20:45;98394.13;;;15.03;100.00
22605;BME280;11469;49.024;8.246;2023-10-19T10:23:19;98394.19;;;14.99;100.00
22605;BME280;11469;49.024;8.246;2023-10-19T10:25:47;98393.41;;;14.99;100.00
22605;BME280;11469;49.024;8.246;2023-10-19T10:28:17;98394.63;;;14.98;100.00
22605;BME280;11469;49.024;8.246;2023-10-19T10:33:39;98394.13;;;15.03;100.00
22605;BME280;11469;49.024;8.246;2023-10-19T10:36:06;98396.66;;;14.97;100.00
22605;BME280;11469;49.024;8.246;2023-10-19T10:38:34;98391.03;;;14.97;100.00
22605;BME280;11469;49.024;8.246;2023-10-19T10:41:00;98390.22;;;14.97;100.00
22605;BME280;11469;49.024;8.246;2023-10-19T10:43:27;98394.28;;;14.96;100.00
22605;BME280;11469;49.024;8.246;2023-10-19T10:46:02;98396.66;;;14.97;100.00
22605;BME280;11469;49.024;8.246;2023-10-19T10:48:28;98399.91;;;14.96;100.00
22605;BME280;11469;49.024;8.246;2023-10-19T10:50:53;98390.31;;;14.93;100.00
22605;BME280;11469;49.024;8.246;2023-10-19T10:53:19;98398.41;;;14.91;100.00
22605;BME280;11469;49.024;8.246;2023-10-19T10:55:45;98385.56;;;14.90;100.00
22605;BME280;11469;49.024;8.246;2023-10-19T10:58:15;98384.41;;;14.87;100.00
22605;BME280;11469;49.024;8.246;2023-10-19T11:00:44;98384.84;;;14.86;100.00
22605;BME280;11469;49.024;8.246;2023-10-19T11:03:12;98381.59;;;14.87;100.00
22605;BME280;11469;49.024;8.246;2023-10-19T11:05:39;98374.78;;;14.85;100.00
22605;BME280;11469;49.024;8.246;2023-10-19T11:08:09;98352.22;;;14.85;100.00
22605;BME280;11469;49.024;8.246;2023-10-19T11:10:38;98343.34;;;15.03;100.00
22605;BME280;11469;49.024;8.246;2023-10-19T11:13:09;98341.56;;;14.92;100.00
22605;BME280;11469;49.024;8.246;2023-10-19T11:15:35;98345.28;;;14.89;100.00
22605;BME280;11469;49.024;8.246;2023-10-19T11:18:02;98328.97;;;14.97;100.00
22605;BME280;11469;49.024;8.246;2023-10-19T11:20:28;98325.63;;;14.86;100.00
22605;BME280;11469;49.024;8.246;2023-10-19T11:22:55;98333.03;;;14.80;100.00
22605;BME280;11469;49.024;8.246;2023-10-19T11:25:23;98336.72;;;14.77;100.00
22605;BME280;11469;49.024;8.246;2023-10-19T11:27:49;98338.03;;;14.72;100.00
22605;BME280;11469;49.024;8.246;2023-10-19T11:30:29;98339.63;;;14.73;100.00
22605;BME280;11469;49.024;8.246;2023-10-19T11:32:55;98334.34;;;14.75;100.00
22605;BME280;11469;49.024;8.246;2023-10-19T11:35:28;98329.84;;;14.78;100.00
22605;BME280;11469;49.024;8.246;2023-10-19T11:37:59;98328.97;;;14.81;100.00
22605;BME280;11469;49.024;8.246;2023-10-19T11:40:26;98320.06;;;14.82;100.00
22605;BME280;11469;49.024;8.246;2023-10-19T11:42:52;98322.44;;;14.84;100.00
22605;BME280;11469;49.024;8.246;2023-10-19T11:45:21;98320.78;;;14.86;100.00
22605;BME280;11469;49.024;8.246;2023-10-19T11:47:48;98329.94;;;14.90;100.00
22605;BME280;11469;49.024;8.246;2023-10-19T11:50:14;98332.69;;;14.94;100.00
22605;BME280;11469;49.024;8.246;2023-10-19T11:52:43;98327.38;;;14.96;100.00
22605;BME280;11469;49.024;8.246;2023-10-19T11:55:13;98328.09;;;15.00;100.00
22605;BME280;11469;49.024;8.246;2023-10-19T11:57:39;98337.25;;;15.04;100.00
22605;BME280;11469;49.024;8.246;2023-10-19T12:00:06;98338.31;;;15.10;100.00
22605;BME280;11469;49.024;8.246;2023-10-19T12:02:35;98336.97;;;15.15;100.00
22605;BME280;11469;49.024;8.246;2023-10-19T12:05:03;98324.72;;;15.21;100.00
22605;BME280;11469;49.024;8.246;2023-10-19T12:07:29;98330.97;;;15.29;100.00
22605;BME280;11469;49.024;8.246;2023-10-19T12:09:55;98318.00;;;15.32;100.00
22605;BME280;11469;49.024;8.246;2023-10-19T12:12:21;98321.53;;;15.36;100.00
22605;BME280;11469;49.024;8.246;2023-10-19T12:14:46;98333.84;;;15.42;100.00
22605;BME280;11469;49.024;8.246;2023-10-19T12:17:12;98318.75;;;15.48;100.00
22605;BME280;11469;49.024;8.246;2023-10-19T12:19:38;98314.97;;;15.55;100.00
22605;BME280;11469;49.024;8.246;2023-10-19T12:22:03;98314.66;;;15.66;100.00
22605;BME280;11469;49.024;8.246;2023-10-19T12:24:29;98316.41;;;15.76;100.00
22605;BME280;11469;49.024;8.246;2023-10-19T12:26:54;98314.75;;;15.91;100.00
22605;BME280;11469;49.024;8.246;2023-10-19T12:29:20;98326.06;;;15.91;100.00
22605;BME280;11469;49.024;8.246;2023-10-19T12:31:49;98318.72;;;15.93;100.00
22605;BME280;11469;49.024;8.246;2023-10-19T12:34:14;98317.59;;;15.91;100.00
22605;BME280;11469;49.024;8.246;2023-10-19T12:36:42;98313.97;;;15.90;100.00
22605;BME280;11469;49.024;8.246;2023-10-19T12:39:10;98317.34;;;15.85;100.00
22605;BME280;11469;49.024;8.246;2023-10-19T12:41:41;98310.34;;;15.90;100.00
22605;BME280;11469;49.024;8.246;2023-10-19T12:44:06;98310.91;;;15.85;100.00
22605;BME280;11469;49.024;8.246;2023-10-19T12:46:37;98313.53;;;15.92;100.00
22605;BME280;11469;49.024;8.246;2023-10-19T12:49:05;98313.75;;;15.98;100.00
22605;BME280;11469;49.024;8.246;2023-10-19T12:51:34;98308.66;;;15.92;100.00
22605;BME280;11469;49.024;8.246;2023-10-19T12:53:59;98302.47;;;15.98;100.00
22605;BME280;11469;49.024;8.246;2023-10-19T12:56:28;98307.66;;;15.99;100.00
22605;BME280;11469;49.024;8.246;2023-10-19T12:58:54;98307.47;;;16.06;100.00
22605;BME280;11469;49.024;8.246;2023-10-19T13:01:19;98306.97;;;16.08;100.00
22605;BME280;11469;49.024;8.246;2023-10-19T13:03:46;98306.53;;;16.09;100.00
22605;BME280;11469;49.024;8.246;2023-10-19T13:06:13;98291.50;;;16.12;100.00